Latest Coastal Weather Observations for Dunalley

IDT60701

Issued at 12:45 pm EDT Tuesday 25 November 2014 (issued every 10 minutes, with the page automatically refreshed every 10 minutes)

About coastal observations | Map of coastal stations | Coastal observations for TAS | Marine services | Other Formats
Station Details ID: 094254 Name: DUNALLEY (STROUD POINT) Lat: -42.90 Lon: 147.79 Height: 12.43 m
Data from the previous 72 hours. | See also: Recent months at Dunalley
Date/Time
EDT
Temp

°C
Wind Pressure Rain
since 9am
mm
Weather Cloud Vis
km
Sea
Height
m
Swell
Dir
 
Speed
knots
Gust
knots
hPa Trend Height
m
Period
s
Dir
25/12:30pm 16.4 WSW 24 31 1005.9 - 0.0 - - - - - - -
25/12:00pm 16.2 WSW 24 30 1005.8 - 0.0 - - - - - - -
25/11:30am 15.3 WSW 26 32 1005.8 - 0.0 - - - - - - -
25/11:00am 15.3 WSW 29 33 1005.5 - 0.0 - - - - - - -
25/10:30am 14.8 WSW 27 33 1005.2 - 0.0 - - - - - - -
25/10:00am 14.7 WSW 31 39 1004.8 - 0.0 - - - - - - -
25/09:30am 14.4 WSW 33 40 1004.1 - 0.0 - - - - - - -
25/09:00am 14.4 WSW 32 39 1004.1 - 3.4 - - - - - - -
25/08:30am 14.1 WSW 34 43 1003.5 - 3.4 - - - - - - -
25/08:00am 14.0 WSW 27 37 1002.9 - 3.4 - - - - - - -
25/07:30am 13.7 WSW 30 37 1002.5 - 3.4 - - - - - - -
25/07:18am 13.8 WSW 28 38 1002.4 - 3.4 - - - - - - -
25/07:00am 13.5 WSW 32 38 1002.1 - 3.4 - - - - - - -
25/06:30am 13.2 WSW 30 35 1001.8 - 3.4 - - - - - - -
25/06:04am 13.0 WSW 27 37 1001.0 - 3.4 - - - - - - -
25/06:00am 13.0 WSW 27 30 1001.0 - 3.4 - - - - - - -
25/05:50am 12.5 W 16 26 1001.1 - 3.4 - - - - - - -
25/05:30am 12.1 W 12 19 1001.0 - 3.4 - - - - - - -
25/05:00am 11.9 W 13 20 1000.7 - 3.4 - - - - - - -
25/04:30am 11.5 WNW 11 17 1000.3 - 3.4 - - - - - - -
25/04:00am 11.6 NW 13 21 1000.5 - 3.4 - - - - - - -
25/03:30am 11.4 WNW 16 21 1000.6 - 3.4 - - - - - - -
25/03:01am 11.3 WNW 17 28 1000.3 - 3.4 - - - - - - -
25/03:00am 11.1 WNW 17 24 1000.3 - 3.4 - - - - - - -
25/02:30am 11.1 WNW 17 24 1000.5 - 3.4 - - - - - - -
25/02:00am 10.9 WNW 15 22 1000.7 - 3.4 - - - - - - -
25/01:30am 10.9 NW 11 16 1001.3 - 3.4 - - - - - - -
25/01:00am 11.3 WNW 14 19 1001.6 - 3.4 - - - - - - -
25/12:30am 11.2 WNW 12 19 1001.8 - 3.4 - - - - - - -
25/12:00am 11.1 NW 11 15 1002.0 - 3.4 - - - - - - -
 
Date/Time
EDT
Temp

°C
Wind Pressure Rain
since 9am
mm
Weather Cloud Vis
km
Sea
Height
m
Swell
Dir
 
Speed
knots
Gust
knots
hPa Trend Height
m
Period
s
Dir
24/11:30pm 11.2 WNW 11 16 1002.5 - 3.4 - - - - - - -
24/11:00pm 11.9 WNW 12 18 1002.5 - 3.4 - - - - - - -
24/10:30pm 12.0 WNW 13 17 1002.4 - 3.4 - - - - - - -
24/10:00pm 12.3 WNW 13 19 1002.6 - 3.4 - - - - - - -
24/09:30pm 12.7 W 9 17 1002.3 - 3.4 - - - - - - -
24/09:00pm 13.5 ENE 6 8 1002.1 - 3.4 - - - - - - -
24/08:30pm 13.3 ENE 3 5 1001.9 - 3.4 - - - - - - -
24/08:00pm 13.5 ENE 3 4 1002.0 - 3.4 - - - - - - -
24/07:30pm 13.5 ENE 3 4 1001.6 - 2.8 - - - - - - -
24/07:00pm 13.5 ENE 5 8 1001.5 - 2.8 - - - - - - -
24/06:30pm 13.8 ENE 3 4 1001.2 - 2.8 - - - - - - -
24/06:00pm 13.4 ENE 2 2 1001.9 - 2.6 Recent precip. - - - - - -
24/05:30pm 13.3 CALM 0 0 1002.1 - 2.4 - - - - - - -
24/05:00pm 13.5 ENE 5 6 1002.5 - 2.2 - - - - - - -
24/04:30pm 14.2 ENE 4 5 1002.6 - 1.2 - - - - - - -
24/04:00pm 14.3 ENE 7 9 1003.0 - 1.2 - - - - - - -
24/03:30pm 14.9 ENE 11 13 1003.3 - 1.0 - - - - - - -
24/03:00pm 15.0 ENE 11 15 1003.5 - 1.0 - - - - - - -
24/02:30pm 15.4 NE 6 9 1004.3 - 1.0 - - - - - - -
24/02:00pm 14.9 ENE 6 11 1004.8 - 1.0 - - - - - - -
24/01:30pm 14.6 ENE 9 12 1005.4 - 1.0 - - - - - - -
24/01:00pm 14.6 NE 14 17 1005.8 - 1.0 - - - - - - -
24/12:30pm 14.5 NNE 9 11 1006.0 - 1.0 - - - - - - -
24/12:00pm 14.0 NE 11 14 1006.8 - 1.0 Recent precip. - - - - - -
24/11:30am 13.9 NE 8 12 1007.5 - 1.0 - - - - - - -
24/11:00am 14.0 NE 6 8 1008.4 - 0.6 - - - - - - -
24/10:30am 14.2 ENE 6 8 1008.5 - 0.4 - - - - - - -
24/10:00am 14.7 ENE 9 11 1007.8 - 0.2 - - - - - - -
24/09:30am 14.1 NE 11 12 1008.6 - 0.2 - - - - - - -
24/09:00am 14.4 NE 5 8 1008.6 - 0.0 - - - - - - -
24/08:30am 14.3 NNE 2 2 1009.0 - 0.0 - - - - - - -
24/08:00am 14.2 NNE 2 3 1008.5 - 0.0 - - - - - - -
24/07:30am 13.7 NNE 2 5 1008.4 - 0.0 - - - - - - -
24/07:00am 13.1 NNE 3 5 1008.6 - 0.0 - - - - - - -
24/06:30am 12.6 NNE 4 6 1008.9 - 0.0 - - - - - - -
24/06:00am 12.5 NNE 5 8 1008.7 - 0.0 - - - - - - -
24/05:30am 10.9 NNE 3 5 1009.2 - 0.0 - - - - - - -
24/05:00am 10.9 NNE 4 6 1009.2 - 0.0 - - - - - - -
24/04:30am 10.5 NNE 4 5 1009.3 - 0.0 - - - - - - -
24/04:00am 11.4 NNE 4 6 1009.3 - 0.0 - - - - - - -
24/03:30am 11.9 NNE 3 4 1009.7 - 0.0 - - - - - - -
24/03:00am 12.9 NE 3 6 1009.8 - 0.0 - - - - - - -
24/02:30am 13.1 NNE 8 9 1010.0 - 0.0 - - - - - - -
24/02:00am 13.3 NNE 8 10 1010.1 - 0.0 - - - - - - -
24/01:30am 13.5 NNE 9 10 1010.5 - 0.0 - - - - - - -
24/01:00am 13.9 NE 9 11 1010.8 - 0.0 - - - - - - -
24/12:30am 14.1 NE 9 12 1011.4 - 0.0 - - - - - - -
24/12:00am 14.3 NE 8 11 1011.6 - 0.0 - - - - - - -
 
Date/Time
EDT
Temp

°C
Wind Pressure Rain
since 9am
mm
Weather Cloud Vis
km
Sea
Height
m
Swell
Dir
 
Speed
knots
Gust
knots
hPa Trend Height
m
Period
s
Dir
23/11:30pm 14.3 NNE 4 8 1011.9 - 0.0 - - - - - - -
23/11:00pm 14.4 NE 14 17 1011.8 - 0.0 - - - - - - -
23/10:30pm 14.9 NE 17 22 1011.8 - 0.0 - - - - - - -
23/10:00pm 15.1 NE 19 22 1011.6 - 0.0 - - - - - - -
23/09:30pm 15.1 NE 20 24 1011.5 - 0.0 - - - - - - -
23/09:00pm 15.1 ENE 18 24 1011.2 - 0.0 - - - - - - -
23/08:30pm 15.2 ENE 21 25 1011.1 - 0.0 - - - - - - -
23/08:00pm 15.2 ENE 16 21 1011.0 - 0.0 - - - - - - -
23/07:30pm 15.3 ENE 19 23 1010.8 - 0.0 - - - - - - -
23/07:00pm 15.4 ENE 20 26 1010.2 - 0.0 - - - - - - -
23/06:30pm 15.6 ENE 20 25 1009.9 - 0.0 - - - - - - -
23/06:00pm 15.9 ENE 20 25 1009.7 - 0.0 - - - - - - -
23/05:30pm 16.5 ENE 20 26 1009.3 - 0.0 - - - - - - -
23/05:00pm 16.9 ENE 20 26 1009.0 - 0.0 - - - - - - -
23/04:30pm 17.4 ENE 20 26 1008.9 - 0.0 - - - - - - -
23/04:00pm 17.5 ENE 20 27 1008.7 - 0.0 - - - - - - -
23/03:30pm 17.8 ENE 19 23 1008.8 - 0.0 - - - - - - -
23/03:00pm 18.1 NE 19 26 1008.8 - 0.0 - - - - - - -
23/02:30pm 18.9 NE 17 22 1008.8 - 0.0 - - - - - - -
23/02:00pm 19.1 ENE 14 18 1008.8 - 0.0 - - - - - - -
23/01:30pm 18.8 NE 17 20 1008.7 - 0.0 - - - - - - -
23/01:00pm 19.8 NE 13 16 1008.4 - 0.0 - - - - - - -
23/12:30pm 19.9 SW 4 5 1008.6 - 0.0 - - - - - - -
23/12:00pm 19.9 SW 5 7 1008.6 - 0.0 - - - - - - -
23/11:30am 18.9 SW 6 8 1008.6 - 0.0 - - - - - - -
23/11:00am 18.4 WSW 8 10 1008.5 - 0.0 - - - - - - -
23/10:30am 18.6 WSW 11 13 1008.4 - 0.0 - - - - - - -
23/10:00am 18.1 WSW 12 15 1008.1 - 0.0 - - - - - - -
23/09:30am 18.2 W 13 16 1007.8 - 0.0 - - - - - - -
23/09:00am 17.0 WSW 12 15 1007.7 - 0.0 - - - - - - -
23/08:30am 16.3 N 3 5 1007.8 - 0.0 - - - - - - -
23/08:00am 15.9 N 2 3 1007.4 - 0.0 - - - - - - -
23/07:30am 14.9 N 3 5 1006.7 - 0.0 - - - - - - -
23/07:00am 14.9 N 3 4 1006.3 - 0.0 - - - - - - -
23/06:30am 14.3 N 5 7 1005.8 - 0.0 - - - - - - -
23/06:00am 13.0 N 1 2 1005.3 - 0.0 - - - - - - -
23/05:30am 12.6 N 1 2 1004.7 - 0.0 - - - - - - -
23/05:00am 12.7 N 3 3 1004.0 - 0.0 - - - - - - -
23/04:30am 13.2 N 2 2 1003.9 - 0.0 - - - - - - -
23/04:00am 13.1 N 1 3 1003.6 - 0.0 - - - - - - -
23/03:30am 13.1 N 5 6 1003.5 - 0.0 - - - - - - -
23/03:00am 13.1 N 6 7 1003.5 - 0.0 - - - - - - -
23/02:30am 13.3 N 5 5 1003.4 - 0.0 - - - - - - -
23/02:00am 13.3 N 4 5 1003.2 - 0.0 - - - - - - -
23/01:30am 13.2 N 4 5 1003.0 - 0.0 - - - - - - -
23/01:00am 13.8 CALM 0 0 1003.0 - 0.0 - - - - - - -
23/12:30am 14.8 N 3 4 1003.2 - 0.0 - - - - - - -
23/12:00am 14.5 N 3 4 1003.3 - 0.0 - - - - - - -
 
Date/Time
EDT
Temp

°C
Wind Pressure Rain
since 9am
mm
Weather Cloud Vis
km
Sea
Height
m
Swell
Dir
 
Speed
knots
Gust
knots
hPa Trend Height
m
Period
s
Dir
22/11:30pm 14.5 N 4 5 1003.4 - 0.0 - - - - - - -
22/11:00pm 15.4 N 8 9 1003.5 - 0.0 - - - - - - -
22/10:30pm 15.2 N 7 9 1003.7 - 0.0 - - - - - - -
22/10:00pm 14.8 NNW 4 5 1003.9 - 0.0 - - - - - - -
22/09:30pm 16.2 NNW 1 2 1003.8 - 0.0 - - - - - - -
22/09:00pm 15.6 CALM 0 1 1003.7 - 0.0 - - - - - - -
22/08:30pm 16.1 NNW 3 4 1003.9 - 0.0 - - - - - - -
22/08:00pm 16.2 N 4 8 1003.7 - 0.0 - - - - - - -
22/07:30pm 17.0 N 1 2 1003.5 - 0.0 - - - - - - -
22/07:00pm 17.7 N 3 6 1003.5 - 0.0 - - - - - - -
22/06:30pm 18.6 N 2 4 1003.0 - 0.0 - - - - - - -
22/06:00pm 19.4 N 1 3 1003.0 - 0.0 - - - - - - -
22/05:30pm 18.3 N 6 7 1003.1 - 0.0 - - - - - - -
22/05:00pm 21.1 N 3 6 1003.1 - 0.0 - - - - - - -
22/04:30pm 22.4 N 5 8 1003.1 - 0.0 - - - - - - -
22/04:00pm 21.8 N 6 9 1003.0 - 0.0 - - - - - - -
22/03:30pm 20.0 NNE 6 9 1003.7 - 0.0 - - - - - - -
22/03:00pm 19.6 NE 7 9 1004.1 - 0.0 - - - - - - -
22/02:30pm 19.7 ENE 8 10 1004.5 - 0.0 - - - - - - -
22/02:00pm 20.1 NE 8 11 1004.7 - 0.0 - - - - - - -
22/01:30pm 18.5 NE 10 12 1005.1 - 0.0 - - - - - - -
22/01:00pm 16.6 NE 11 14 1005.7 - 0.0 - - - - - - -

Other Formats:

Comma delimited format used in spreadsheet applications
http://www.bom.gov.au/fwo/IDT60701/IDT60701.94951.axf

JavaScript Object Notation format (JSON) in row-major order
http://www.bom.gov.au/fwo/IDT60701/IDT60701.94951.json